createdAt,value
2018-10-16T00:01:15.043Z,6.90
2018-10-16T00:03:42.538Z,6.17
2018-10-16T00:06:09.988Z,7.23
2018-10-16T00:08:37.435Z,9.97
2018-10-16T00:11:04.928Z,8.27
2018-10-16T00:13:32.487Z,11.97
2018-10-16T00:16:00.057Z,10.40
2018-10-16T00:18:27.522Z,10.83
2018-10-16T00:20:54.970Z,9.70
2018-10-16T00:23:22.539Z,10.17
2018-10-16T00:25:49.995Z,8.83
2018-10-16T00:28:18.611Z,10.53
2018-10-16T00:30:46.163Z,12.47
2018-10-16T00:33:13.615Z,12.37
2018-10-16T00:35:41.384Z,7.80
2018-10-16T00:38:08.988Z,10.40
2018-10-16T00:40:36.411Z,8.37
2018-10-16T00:43:04.182Z,9.13
2018-10-16T00:45:31.652Z,10.07
2018-10-16T00:47:59.104Z,9.20
2018-10-16T00:50:26.783Z,10.23
2018-10-16T00:52:55.775Z,9.20
2018-10-16T00:55:23.234Z,12.53
2018-10-16T00:57:50.691Z,9.73
2018-10-16T01:00:18.262Z,10.37
2018-10-16T01:02:45.713Z,8.80
2018-10-16T01:05:13.175Z,9.23
2018-10-16T01:07:40.738Z,12.17
2018-10-16T01:10:08.211Z,10.10
2018-10-16T01:12:36.893Z,9.83
2018-10-16T01:15:04.463Z,11.10
2018-10-16T01:17:31.911Z,10.87
2018-10-16T01:19:59.487Z,10.07
2018-10-16T01:22:26.955Z,10.87
2018-10-16T01:24:54.408Z,10.40
2018-10-16T01:27:23.347Z,11.80
2018-10-16T01:29:51.929Z,10.43
2018-10-16T01:32:20.142Z,10.17
2018-10-16T01:34:47.601Z,12.03
2018-10-16T01:37:16.187Z,10.03
2018-10-16T01:39:43.671Z,11.03
2018-10-16T01:42:11.127Z,14.53
2018-10-16T01:44:38.626Z,12.03
2018-10-16T01:47:06.375Z,9.40
2018-10-16T01:49:33.842Z,10.33
2018-10-16T01:52:01.295Z,11.77
2018-10-16T01:54:28.761Z,13.50
2018-10-16T01:56:56.221Z,10.77
2018-10-16T01:59:23.692Z,11.50
2018-10-16T02:01:51.255Z,10.83
2018-10-16T02:04:18.813Z,9.60
2018-10-16T02:06:46.382Z,9.43
2018-10-16T02:09:13.840Z,11.03
2018-10-16T02:11:41.608Z,11.97
2018-10-16T02:14:09.060Z,12.53
2018-10-16T02:16:36.515Z,13.10
2018-10-16T02:19:04.000Z,14.13
2018-10-16T02:21:31.458Z,11.17
2018-10-16T02:23:58.907Z,12.07
2018-10-16T02:26:26.371Z,14.43
2018-10-16T02:28:53.826Z,11.30
2018-10-16T02:31:21.292Z,14.73
2018-10-16T02:33:48.777Z,11.17
2018-10-16T02:36:16.247Z,10.77
2018-10-16T02:38:44.830Z,13.27
2018-10-16T02:41:12.384Z,12.77
2018-10-16T02:43:39.839Z,16.47
2018-10-16T02:46:07.622Z,13.70
2018-10-16T02:48:35.097Z,13.53
2018-10-16T02:51:02.661Z,13.17
2018-10-16T02:53:30.125Z,13.30
2018-10-16T02:55:57.880Z,13.40
2018-10-16T02:58:25.449Z,12.53
2018-10-16T03:00:52.905Z,13.93
2018-10-16T03:03:20.371Z,11.27
2018-10-16T03:05:47.833Z,12.70
2018-10-16T03:08:15.285Z,11.97
2018-10-16T03:10:42.739Z,13.23
2018-10-16T03:13:11.806Z,12.87
2018-10-16T03:15:40.409Z,12.40
2018-10-16T03:18:07.963Z,11.90
2018-10-16T03:20:36.663Z,15.53
2018-10-16T03:23:04.040Z,9.77
2018-10-16T03:25:31.523Z,12.47
2018-10-16T03:27:58.988Z,11.93
2018-10-16T03:30:26.461Z,10.70
2018-10-16T03:32:55.029Z,13.90
2018-10-16T03:35:22.479Z,14.37
2018-10-16T03:37:49.954Z,12.23
2018-10-16T03:40:18.543Z,16.73
2018-10-16T03:42:46.012Z,15.50
2018-10-16T03:45:14.280Z,15.37
2018-10-16T03:47:41.885Z,14.67
2018-10-16T03:50:09.333Z,17.03
2018-10-16T03:52:37.563Z,14.43
2018-10-16T03:55:05.020Z,12.90
2018-10-16T03:57:32.520Z,17.57
2018-10-16T03:59:59.976Z,13.77
2018-10-16T04:02:27.438Z,12.47
2018-10-16T04:04:56.136Z,13.10
2018-10-16T04:07:23.601Z,13.63
2018-10-16T04:09:51.054Z,11.87
2018-10-16T04:12:18.521Z,13.40
2018-10-16T04:14:46.006Z,13.40
2018-10-16T04:17:14.232Z,12.93
2018-10-16T04:19:41.699Z,12.70
2018-10-16T04:22:09.167Z,14.43
2018-10-16T04:24:36.653Z,14.17
2018-10-16T04:27:04.114Z,11.63
2018-10-16T04:29:31.595Z,13.27
2018-10-16T04:31:59.129Z,12.63
2018-10-16T04:34:26.599Z,16.43
2018-10-16T04:36:54.162Z,11.10
2018-10-16T04:39:22.963Z,15.43
2018-10-16T04:41:51.855Z,13.07
2018-10-16T04:44:20.663Z,12.53
2018-10-16T04:46:49.539Z,13.60
2018-10-16T04:49:18.360Z,14.23
2018-10-16T04:51:46.955Z,14.17
2018-10-16T04:54:15.201Z,14.17
2018-10-16T04:56:42.757Z,13.07
2018-10-16T04:59:10.332Z,11.27
2018-10-16T05:01:37.784Z,15.50
2018-10-16T05:04:06.167Z,17.87
2018-10-16T05:06:34.350Z,15.87
2018-10-16T05:09:01.910Z,17.17
2018-10-16T05:11:29.372Z,15.70
2018-10-16T05:13:56.931Z,13.33
2018-10-16T05:16:24.386Z,16.27
2018-10-16T05:18:53.257Z,18.67
2018-10-16T05:21:22.091Z,16.13
2018-10-16T05:23:50.310Z,16.10
2018-10-16T05:26:17.835Z,15.73
2018-10-16T05:28:46.425Z,17.80
2018-10-16T05:31:13.976Z,18.47
2018-10-16T05:33:41.443Z,18.93
2018-10-16T05:36:08.896Z,13.67
2018-10-16T05:38:36.363Z,16.27
2018-10-16T05:41:03.851Z,16.63
2018-10-16T05:43:31.589Z,17.03
2018-10-16T05:45:59.079Z,18.27
2018-10-16T05:48:26.539Z,16.40
2018-10-16T05:50:54.005Z,18.27
2018-10-16T05:53:21.593Z,17.50
2018-10-16T05:55:49.116Z,20.90
2018-10-16T05:58:16.578Z,16.97
2018-10-16T06:00:44.043Z,15.90
2018-10-16T06:03:13.021Z,18.47
2018-10-16T06:05:40.557Z,16.80
2018-10-16T06:08:08.060Z,17.80
2018-10-16T06:10:36.236Z,17.27
2018-10-16T06:13:03.803Z,22.03
2018-10-16T06:15:32.715Z,16.93
2018-10-16T06:18:00.260Z,17.87
2018-10-16T06:20:27.723Z,17.77
2018-10-16T06:22:55.176Z,13.57
2018-10-16T06:25:22.943Z,12.60
2018-10-16T06:27:51.580Z,15.93
2018-10-16T06:30:20.246Z,16.03
2018-10-16T06:32:47.648Z,16.17
2018-10-16T06:35:15.107Z,16.37
2018-10-16T06:37:42.576Z,16.83
2018-10-16T06:40:10.080Z,14.40
2018-10-16T06:42:37.648Z,16.03
2018-10-16T06:45:05.104Z,16.30
2018-10-16T06:47:32.604Z,17.07
2018-10-16T06:50:00.023Z,16.93
2018-10-16T06:52:27.597Z,14.17
2018-10-16T06:54:55.077Z,16.27
2018-10-16T06:57:22.618Z,17.57
2018-10-16T06:59:50.080Z,15.73
2018-10-16T07:02:17.535Z,16.17
2018-10-16T07:04:46.504Z,17.70
2018-10-16T07:07:14.137Z,16.60
2018-10-16T07:09:41.466Z,14.33
2018-10-16T07:12:09.236Z,17.13
2018-10-16T07:14:36.687Z,16.90
2018-10-16T07:17:04.261Z,15.27
2018-10-16T07:19:31.735Z,18.40
2018-10-16T07:21:59.196Z,14.87
2018-10-16T07:24:26.744Z,21.23
2018-10-16T07:26:54.308Z,17.20
2018-10-16T07:29:21.878Z,24.70
2018-10-16T07:31:49.375Z,23.50
2018-10-16T07:34:17.613Z,18.20
2018-10-16T07:36:45.189Z,17.80
2018-10-16T07:39:12.660Z,21.77
2018-10-16T07:41:40.202Z,22.80
2018-10-16T07:44:07.666Z,22.70
2018-10-16T07:46:35.125Z,22.77
2018-10-16T07:49:02.702Z,23.50
2018-10-16T07:51:30.153Z,18.70
2018-10-16T07:53:58.757Z,14.43
2018-10-16T07:56:26.217Z,22.53
2018-10-16T07:58:53.681Z,18.73
2018-10-16T08:01:21.242Z,16.40
2018-10-16T08:03:48.801Z,18.47
2018-10-16T08:06:16.258Z,25.23
2018-10-16T08:08:44.009Z,21.30
2018-10-16T08:11:11.497Z,19.60
2018-10-16T08:13:38.962Z,20.33
2018-10-16T08:16:06.430Z,23.33
2018-10-16T08:18:33.980Z,27.97
2018-10-16T08:21:01.543Z,22.53
2018-10-16T08:23:29.113Z,22.23
2018-10-16T08:25:56.574Z,16.80
2018-10-16T08:28:24.037Z,15.23
2018-10-16T08:30:51.499Z,12.07
2018-10-16T08:33:18.970Z,20.53
2018-10-16T08:35:47.958Z,19.83
2018-10-16T08:38:15.407Z,17.50
2018-10-16T08:40:42.900Z,19.30
2018-10-16T08:43:10.450Z,26.87
2018-10-16T08:49:01.279Z,25.40
2018-10-16T08:51:29.525Z,20.67
2018-10-16T08:53:57.044Z,24.20
2018-10-16T08:56:25.676Z,21.93
2018-10-16T08:58:54.367Z,19.57
2018-10-16T09:01:22.239Z,21.97
2018-10-16T09:03:49.691Z,20.60
2018-10-16T09:06:17.272Z,19.47
2018-10-16T09:08:44.748Z,19.60
2018-10-16T09:11:12.303Z,21.90
2018-10-16T09:13:39.789Z,25.43
2018-10-16T09:16:08.025Z,20.43
2018-10-16T09:18:35.473Z,19.17
2018-10-16T09:21:02.944Z,22.60
2018-10-16T09:23:31.883Z,22.93
2018-10-16T09:26:00.480Z,23.43
2018-10-16T09:28:29.075Z,22.10
2018-10-16T09:30:56.580Z,19.23
2018-10-16T09:33:24.052Z,24.40
2018-10-16T09:35:51.521Z,20.70
2018-10-16T09:38:19.282Z,20.43
2018-10-16T09:40:46.851Z,23.90
2018-10-16T09:43:15.460Z,21.93
2018-10-16T09:45:44.063Z,20.00
2018-10-16T09:48:12.651Z,21.03
2018-10-16T09:50:40.886Z,21.97
2018-10-16T09:53:08.352Z,22.80
2018-10-16T09:55:35.812Z,25.40
2018-10-16T09:58:04.499Z,25.53
2018-10-16T10:00:32.282Z,23.57
2018-10-16T10:02:59.736Z,24.80
2018-10-16T10:05:28.487Z,20.67
2018-10-16T10:07:56.296Z,22.10
2018-10-16T10:10:24.884Z,19.93
2018-10-16T10:12:52.345Z,23.93
2018-10-16T10:15:21.037Z,23.70
2018-10-16T10:17:49.651Z,25.23
2018-10-16T10:20:17.099Z,21.37
2018-10-16T10:22:44.662Z,21.87
2018-10-16T10:25:13.381Z,22.63
2018-10-16T10:27:40.914Z,21.93
2018-10-16T10:30:08.472Z,23.60
2018-10-16T10:32:36.035Z,20.63
2018-10-16T10:35:03.493Z,19.87
2018-10-16T10:37:31.215Z,21.57
2018-10-16T10:39:58.793Z,21.30
2018-10-16T10:42:26.293Z,21.17
2018-10-16T10:44:53.772Z,22.90
2018-10-16T10:47:21.226Z,20.00
2018-10-16T10:49:48.845Z,18.53
2018-10-16T10:52:16.350Z,20.57
2018-10-16T10:54:44.952Z,18.23
2018-10-16T10:57:12.488Z,19.67
2018-10-16T10:59:41.021Z,17.27
2018-10-16T11:02:09.683Z,19.97
2018-10-16T11:04:37.907Z,19.57
2018-10-16T11:07:06.553Z,18.73
2018-10-16T11:09:35.161Z,19.03
2018-10-16T11:12:03.420Z,19.17
2018-10-16T11:14:30.891Z,18.27
2018-10-16T11:16:58.445Z,19.17
2018-10-16T11:19:25.918Z,21.77
2018-10-16T11:21:53.465Z,17.47
2018-10-16T11:24:21.019Z,18.33
2018-10-16T11:26:48.591Z,13.57
2018-10-16T11:29:16.152Z,15.87
2018-10-16T11:31:43.725Z,12.80
2018-10-16T11:34:11.284Z,16.40
2018-10-16T11:36:38.743Z,14.80
2018-10-16T11:39:06.264Z,14.63
2018-10-16T11:41:33.682Z,13.67
2018-10-16T11:44:02.373Z,13.53
2018-10-16T11:46:30.135Z,12.30
2018-10-16T11:48:57.589Z,11.80
2018-10-16T11:51:25.060Z,12.80
2018-10-16T11:53:54.369Z,13.73
2018-10-16T11:56:21.828Z,13.70
2018-10-16T11:58:50.520Z,13.53
2018-10-16T12:01:18.076Z,10.50
2018-10-16T12:03:46.355Z,13.07
2018-10-16T12:06:13.954Z,10.30
2018-10-16T12:08:41.389Z,10.97
2018-10-16T12:11:08.921Z,10.37
2018-10-16T12:13:36.313Z,9.63
2018-10-16T12:16:04.821Z,11.33
2018-10-16T12:18:33.041Z,7.60
2018-10-16T12:21:00.582Z,8.60
2018-10-16T12:23:28.048Z,10.60
2018-10-16T12:25:55.885Z,7.80
2018-10-16T12:28:24.495Z,4.97
2018-10-16T12:30:52.735Z,5.03
2018-10-16T12:33:20.205Z,7.07
2018-10-16T12:35:47.667Z,5.40
2018-10-16T12:38:15.134Z,4.83
2018-10-16T12:40:42.584Z,7.43
2018-10-16T12:43:10.095Z,4.60
2018-10-16T12:45:37.531Z,6.07
2018-10-16T12:48:05.019Z,5.17
2018-10-16T12:50:34.169Z,6.67
2018-10-16T12:53:02.785Z,7.33
2018-10-16T12:55:30.331Z,5.03
2018-10-16T12:57:57.897Z,7.00
2018-10-16T13:00:25.459Z,5.67
2018-10-16T13:02:52.961Z,5.93
2018-10-16T13:05:20.408Z,7.10
2018-10-16T13:07:48.628Z,5.50
2018-10-16T13:10:16.127Z,6.53
2018-10-16T13:12:43.584Z,5.53
2018-10-16T13:15:11.159Z,6.17
2018-10-16T13:17:38.603Z,5.83
2018-10-16T13:20:06.136Z,5.03
2018-10-16T13:22:33.547Z,5.23
2018-10-16T13:25:01.103Z,6.50
2018-10-16T13:27:28.675Z,5.43
2018-10-16T13:29:56.194Z,5.13
2018-10-16T13:32:23.605Z,7.13
2018-10-16T13:34:51.184Z,6.10
2018-10-16T13:37:18.719Z,5.60
2018-10-16T13:39:46.228Z,4.27
2018-10-16T13:42:14.501Z,5.13
2018-10-16T13:44:42.816Z,6.13
2018-10-16T13:47:10.309Z,5.40
2018-10-16T13:49:37.818Z,4.80
2018-10-16T13:52:06.147Z,5.00
2018-10-16T13:54:34.053Z,4.77
2018-10-16T13:57:01.594Z,4.77
2018-10-16T13:59:29.047Z,7.20
2018-10-16T14:01:56.603Z,5.57
2018-10-16T14:04:24.060Z,6.07
2018-10-16T14:06:51.585Z,5.10
2018-10-16T14:09:19.866Z,5.20
2018-10-16T14:11:48.084Z,4.20
2018-10-16T14:14:16.816Z,4.80
2018-10-16T14:16:44.344Z,6.87
2018-10-16T14:19:12.568Z,4.20
2018-10-16T14:21:40.816Z,5.40
2018-10-16T14:24:08.293Z,6.07
2018-10-16T14:26:35.836Z,6.87
2018-10-16T14:29:03.222Z,6.13
2018-10-16T14:31:30.841Z,7.17
2018-10-16T14:33:58.449Z,6.33
2018-10-16T14:36:25.813Z,7.70
2018-10-16T14:38:53.284Z,6.33
2018-10-16T14:41:20.823Z,4.97
2018-10-16T14:43:48.385Z,5.67
2018-10-16T14:46:16.035Z,7.10
2018-10-16T14:48:44.209Z,10.70
2018-10-16T14:51:11.671Z,7.33
2018-10-16T14:53:39.156Z,21.93
2018-10-16T14:56:07.455Z,13.63
2018-10-16T14:58:34.885Z,46.73
2018-10-16T15:01:03.704Z,18.47
2018-10-16T15:03:31.195Z,10.30
2018-10-16T15:06:00.064Z,23.90
2018-10-16T15:08:27.619Z,11.73
2018-10-16T15:10:56.215Z,9.53
2018-10-16T15:13:23.677Z,23.10
2018-10-16T15:15:51.231Z,18.10
2018-10-16T15:18:18.699Z,33.80
2018-10-16T15:20:46.163Z,23.93
2018-10-16T15:23:13.624Z,16.47
2018-10-16T15:25:41.205Z,23.93
2018-10-16T15:28:09.525Z,19.87
2018-10-16T15:30:36.926Z,12.67
2018-10-16T15:33:05.911Z,9.93
2018-10-16T15:35:33.389Z,8.83
2018-10-16T15:38:00.948Z,12.93
2018-10-16T15:40:28.424Z,8.93
2018-10-16T15:42:56.696Z,16.40
2018-10-16T15:45:25.687Z,15.53
2018-10-16T15:47:53.213Z,9.97
2018-10-16T15:50:20.692Z,8.37
2018-10-16T15:52:48.755Z,8.93
2018-10-16T15:55:17.364Z,9.20
2018-10-16T15:57:44.901Z,7.67
2018-10-16T16:00:12.402Z,8.27
2018-10-16T16:02:40.060Z,9.43
2018-10-16T16:05:07.533Z,8.60
2018-10-16T16:07:34.975Z,7.07
2018-10-16T16:10:02.598Z,7.70
2018-10-16T16:12:30.034Z,7.70
2018-10-16T16:14:57.468Z,8.33
2018-10-16T16:17:25.047Z,9.70
2018-10-16T16:19:52.511Z,7.50
2018-10-16T16:22:19.976Z,7.93
2018-10-16T16:24:47.531Z,8.07
2018-10-16T16:27:15.090Z,7.13
2018-10-16T16:29:42.572Z,7.17
2018-10-16T16:32:10.206Z,6.23
2018-10-16T16:34:38.744Z,5.33
2018-10-16T16:37:07.546Z,6.37
2018-10-16T16:39:36.618Z,6.27
2018-10-16T16:42:05.280Z,6.73
2018-10-16T16:44:33.919Z,6.63
2018-10-16T16:47:02.498Z,9.27
2018-10-16T16:49:31.166Z,7.23
2018-10-16T16:51:58.697Z,5.93
2018-10-16T16:54:26.953Z,7.37
2018-10-16T16:56:55.283Z,7.27
2018-10-16T16:59:22.769Z,9.53
2018-10-16T17:01:50.214Z,6.90
2018-10-16T17:04:17.782Z,8.50
2018-10-16T17:06:45.229Z,7.57
2018-10-16T17:09:12.683Z,6.67
2018-10-16T17:11:40.146Z,6.87
2018-10-16T17:14:07.688Z,10.67
2018-10-16T17:16:36.240Z,6.47
2018-10-16T17:19:04.495Z,7.27
2018-10-16T17:21:33.297Z,6.60
2018-10-16T17:24:06.204Z,7.47
2018-10-16T17:26:34.471Z,7.37
2018-10-16T17:29:01.907Z,7.00
2018-10-16T17:31:29.369Z,11.83
2018-10-16T17:33:57.976Z,11.23
2018-10-16T17:36:25.416Z,7.50
2018-10-16T17:38:52.921Z,8.27
2018-10-16T17:41:20.349Z,7.63
2018-10-16T17:43:47.818Z,9.23
2018-10-16T17:46:15.288Z,9.13
2018-10-16T17:48:42.848Z,9.70
2018-10-16T17:51:11.582Z,8.03
2018-10-16T17:53:39.088Z,9.13
2018-10-16T17:56:06.647Z,9.10
2018-10-16T17:58:34.119Z,11.17
2018-10-16T18:01:01.573Z,9.13
2018-10-16T18:03:29.861Z,7.97
2018-10-16T18:05:57.457Z,8.83
2018-10-16T18:08:25.707Z,8.90
2018-10-16T18:10:53.176Z,9.37
2018-10-16T18:13:20.635Z,10.27
2018-10-16T18:15:48.196Z,10.17
2018-10-16T18:18:17.179Z,9.07
2018-10-16T18:20:45.324Z,8.67
2018-10-16T18:23:12.777Z,7.20
2018-10-16T18:25:40.299Z,9.03
2018-10-16T18:28:07.756Z,9.03
2018-10-16T18:30:35.211Z,8.90
2018-10-16T18:33:02.838Z,8.50
2018-10-16T18:35:30.239Z,11.97
2018-10-16T18:37:57.700Z,12.40
2018-10-16T18:40:25.192Z,8.60
2018-10-16T18:42:53.408Z,11.17
2018-10-16T18:45:20.921Z,10.07
2018-10-16T18:47:48.379Z,7.43
2018-10-16T18:50:15.835Z,9.93
2018-10-16T18:52:43.292Z,8.73
2018-10-16T18:55:10.767Z,8.90
2018-10-16T18:57:38.323Z,8.93
2018-10-16T19:00:05.773Z,7.70
2018-10-16T19:02:34.480Z,8.73
2018-10-16T19:05:02.706Z,9.00
2018-10-16T19:07:30.216Z,7.63
2018-10-16T19:09:57.798Z,8.10
2018-10-16T19:12:25.282Z,5.73
2018-10-16T19:14:53.545Z,7.53
2018-10-16T19:17:21.131Z,8.23
2018-10-16T19:19:49.953Z,10.17
2018-10-16T19:22:17.458Z,9.50
2018-10-16T19:24:44.977Z,11.33
2018-10-16T19:27:12.496Z,8.73
2018-10-16T19:29:41.089Z,8.67
2018-10-16T19:32:09.366Z,11.50
2018-10-16T19:34:38.056Z,8.47
2018-10-16T19:37:05.606Z,9.47
2018-10-16T19:39:33.103Z,11.83
2018-10-16T19:42:01.701Z,11.40
2018-10-16T19:44:29.215Z,8.47
2018-10-16T19:46:56.778Z,8.40
2018-10-16T19:49:24.346Z,8.63
2018-10-16T19:51:51.798Z,9.73
2018-10-16T19:54:19.379Z,9.80
2018-10-16T19:56:46.830Z,10.23
2018-10-16T19:59:14.408Z,10.43
2018-10-16T20:01:41.956Z,9.63
2018-10-16T20:04:09.424Z,12.53
2018-10-16T20:06:36.991Z,8.60
2018-10-16T20:09:04.472Z,11.67
2018-10-16T20:11:33.042Z,13.97
2018-10-16T20:14:00.514Z,11.30
2018-10-16T20:16:28.059Z,11.93
2018-10-16T20:18:55.536Z,11.07
2018-10-16T20:21:22.996Z,14.70
2018-10-16T20:23:50.554Z,13.33
2018-10-16T20:26:18.804Z,14.67
2018-10-16T20:28:46.260Z,12.83
2018-10-16T20:31:13.766Z,15.10
2018-10-16T20:33:42.437Z,14.23
2018-10-16T20:36:09.900Z,16.10
2018-10-16T20:38:37.467Z,16.23
2018-10-16T20:41:05.043Z,15.20
2018-10-16T20:43:32.508Z,16.23
2018-10-16T20:45:59.983Z,16.33
2018-10-16T20:48:27.535Z,17.37
2018-10-16T20:50:54.999Z,18.97
2018-10-16T20:53:22.461Z,13.63
2018-10-16T20:55:50.012Z,15.00
2018-10-16T20:58:17.572Z,14.33
2018-10-16T21:00:45.046Z,15.07
2018-10-16T21:03:12.498Z,14.10
2018-10-16T21:05:41.115Z,13.20
2018-10-16T21:08:10.208Z,16.07
2018-10-16T21:10:37.664Z,16.17
2018-10-16T21:13:05.150Z,14.70
2018-10-16T21:15:32.682Z,12.93
2018-10-16T21:18:00.138Z,15.47
2018-10-16T21:20:27.699Z,14.57
2018-10-16T21:22:55.321Z,12.93
2018-10-16T21:25:22.737Z,14.03
2018-10-16T21:27:50.185Z,18.70
2018-10-16T21:30:17.639Z,14.63
2018-10-16T21:32:45.117Z,16.47
2018-10-16T21:35:12.679Z,12.30
2018-10-16T21:37:40.140Z,19.47
2018-10-16T21:40:07.591Z,13.17
2018-10-16T21:42:35.058Z,15.90
2018-10-16T21:45:02.511Z,15.93
2018-10-16T21:47:29.963Z,16.43
2018-10-16T21:49:57.734Z,16.80
2018-10-16T21:52:25.218Z,12.37
2018-10-16T21:54:52.681Z,13.67
2018-10-16T21:57:20.131Z,14.70
2018-10-16T21:59:47.596Z,15.87
2018-10-16T22:02:15.050Z,18.83
2018-10-16T22:04:42.530Z,14.67
2018-10-16T22:07:10.196Z,18.97
2018-10-16T22:09:37.654Z,18.93
2018-10-16T22:12:05.132Z,18.83
2018-10-16T22:14:32.691Z,16.70
2018-10-16T22:17:00.248Z,15.93
2018-10-16T22:19:27.695Z,14.27
2018-10-16T22:21:55.168Z,11.63
2018-10-16T22:24:22.625Z,14.63
2018-10-16T22:26:50.101Z,12.83
2018-10-16T22:29:17.665Z,13.47
2018-10-16T22:31:45.120Z,16.90
2018-10-16T22:34:12.572Z,19.53
2018-10-16T22:36:40.057Z,18.50
2018-10-16T22:39:07.613Z,17.10
2018-10-16T22:41:35.066Z,18.43
2018-10-16T22:44:02.523Z,16.70
2018-10-16T22:46:30.003Z,17.93
2018-10-16T22:48:57.513Z,14.53
2018-10-16T22:51:24.933Z,14.30
2018-10-16T22:53:52.392Z,18.50
2018-10-16T22:56:19.848Z,20.27
2018-10-16T22:58:47.295Z,20.13
2018-10-16T23:01:15.992Z,21.67
2018-10-16T23:03:43.576Z,17.93
2018-10-16T23:06:11.029Z,16.90
2018-10-16T23:08:38.596Z,18.90
2018-10-16T23:11:06.190Z,18.13
2018-10-16T23:13:33.605Z,19.13
2018-10-16T23:16:01.181Z,22.57
2018-10-16T23:18:28.637Z,16.13
2018-10-16T23:20:57.241Z,16.10
2018-10-16T23:23:25.833Z,17.17
2018-10-16T23:25:53.290Z,17.17
2018-10-16T23:28:21.891Z,18.43
2018-10-16T23:30:49.436Z,20.50
2018-10-16T23:33:16.892Z,22.67
2018-10-16T23:35:44.461Z,17.87
2018-10-16T23:38:11.944Z,17.53
2018-10-16T23:40:39.493Z,19.03
2018-10-16T23:43:06.991Z,18.97
2018-10-16T23:45:34.428Z,19.37
2018-10-16T23:48:01.856Z,18.30
2018-10-16T23:50:29.313Z,18.63
2018-10-16T23:52:56.825Z,17.23
2018-10-16T23:55:24.360Z,20.40
2018-10-16T23:57:51.924Z,18.63
